createdAt,value
2023-02-12T00:01:33.560Z,44.50
2023-02-12T00:04:01.820Z,43.60
2023-02-12T00:06:29.849Z,43.90
2023-02-12T00:08:58.530Z,41.40
2023-02-12T00:11:29.817Z,43.00
2023-02-12T00:13:58.872Z,43.20
2023-02-12T00:16:28.836Z,35.80
2023-02-12T00:18:58.565Z,37.60
2023-02-12T00:21:27.228Z,38.00
2023-02-12T00:23:55.723Z,34.30
2023-02-12T00:26:24.725Z,38.80
2023-02-12T00:28:53.542Z,40.90
2023-02-12T00:31:25.040Z,37.90
2023-02-12T00:33:53.527Z,39.20
2023-02-12T00:36:24.870Z,38.40
2023-02-12T00:38:54.956Z,39.60
2023-02-12T00:41:26.332Z,37.90
2023-02-12T00:43:54.527Z,36.50
2023-02-12T00:46:22.669Z,39.20
2023-02-12T00:48:51.032Z,36.20
2023-02-12T00:51:21.705Z,40.00
2023-02-12T00:53:49.638Z,40.50
2023-02-12T00:56:17.854Z,40.00
2023-02-12T00:58:45.946Z,21.60
2023-02-12T01:01:13.927Z,36.70
2023-02-12T01:03:41.972Z,35.90
2023-02-12T01:06:10.120Z,36.40
2023-02-12T01:08:38.158Z,34.90
2023-02-12T01:11:06.689Z,36.40
2023-02-12T01:13:35.492Z,34.30
2023-02-12T01:16:12.830Z,27.20
2023-02-12T01:18:40.935Z,36.80
2023-02-12T01:21:10.963Z,37.10
2023-02-12T01:23:39.346Z,32.70
2023-02-12T01:26:07.830Z,29.80
2023-02-12T01:28:35.854Z,35.00
2023-02-12T01:31:09.587Z,38.00
2023-02-12T01:33:37.669Z,39.50
2023-02-12T01:36:06.374Z,39.10
2023-02-12T01:38:34.670Z,38.50
2023-02-12T01:41:11.931Z,39.40
2023-02-12T01:43:40.980Z,39.50
2023-02-12T01:46:12.690Z,37.80
2023-02-12T01:48:44.657Z,40.20
2023-02-12T01:51:18.326Z,40.70
2023-02-12T01:53:51.032Z,41.00
2023-02-12T01:56:20.235Z,39.50
2023-02-12T01:58:51.222Z,30.70
2023-02-12T02:01:23.493Z,39.40
2023-02-12T02:03:56.315Z,38.60
2023-02-12T02:06:29.911Z,35.00
2023-02-12T02:08:58.164Z,29.40
2023-02-12T02:11:45.171Z,33.20
2023-02-12T02:14:32.353Z,34.10
2023-02-12T02:17:21.595Z,35.80
2023-02-12T02:20:28.431Z,35.30
2023-02-12T02:23:24.048Z,25.90
2023-02-12T02:26:14.550Z,32.10
2023-02-12T02:28:57.747Z,31.90
2023-02-12T02:31:43.051Z,30.90
2023-02-12T02:34:39.893Z,33.10
2023-02-12T02:37:48.091Z,33.20
2023-02-12T02:40:20.090Z,33.50
2023-02-12T02:43:00.876Z,29.70
2023-02-12T02:45:36.423Z,34.60
2023-02-12T02:48:19.380Z,33.90
2023-02-12T02:50:52.564Z,29.30
2023-02-12T02:53:28.710Z,33.50
2023-02-12T02:56:00.015Z,36.20
2023-02-12T02:58:46.705Z,36.00
2023-02-12T03:01:29.833Z,32.50
2023-02-12T03:04:02.818Z,35.40
2023-02-12T03:06:40.273Z,33.60
2023-02-12T03:09:20.435Z,27.10
2023-02-12T03:11:50.975Z,27.30
2023-02-12T03:14:29.211Z,24.10
2023-02-12T03:17:05.373Z,29.60
2023-02-12T03:20:01.005Z,26.30
2023-02-12T03:22:33.382Z,32.30
2023-02-12T03:25:12.463Z,32.00
2023-02-12T03:27:50.087Z,30.70
2023-02-12T03:30:18.658Z,31.40
2023-02-12T03:32:54.274Z,33.80
2023-02-12T03:35:32.479Z,34.40
2023-02-12T03:38:42.455Z,33.70
2023-02-12T03:41:31.565Z,33.80
2023-02-12T03:44:18.960Z,35.10
2023-02-12T03:47:05.412Z,33.90
2023-02-12T03:49:47.444Z,34.60
2023-02-12T03:52:15.455Z,35.80
2023-02-12T03:54:43.516Z,37.00
2023-02-12T03:57:16.580Z,36.00
2023-02-12T03:59:45.883Z,34.90
2023-02-12T04:02:16.538Z,36.20
2023-02-12T04:04:46.891Z,34.70
2023-02-12T04:07:16.859Z,35.70
2023-02-12T04:09:45.212Z,35.30
2023-02-12T04:12:41.345Z,35.90
2023-02-12T04:15:28.500Z,36.20
2023-02-12T04:18:23.697Z,36.50
2023-02-12T04:21:10.612Z,35.40
2023-02-12T04:24:01.732Z,34.60
2023-02-12T04:26:55.341Z,38.80
2023-02-12T04:29:42.117Z,36.50
2023-02-12T04:32:17.706Z,31.60
2023-02-12T04:34:59.082Z,35.50
2023-02-12T04:38:11.760Z,36.00
2023-02-12T04:40:41.864Z,35.40
2023-02-12T04:43:10.118Z,38.00
2023-02-12T04:45:38.477Z,35.40
2023-02-12T04:48:06.894Z,29.60
2023-02-12T04:50:43.863Z,31.60
2023-02-12T04:53:11.820Z,33.80
2023-02-12T04:55:40.236Z,33.20
2023-02-12T04:58:08.271Z,33.10
2023-02-12T05:00:36.375Z,34.20
2023-02-12T05:03:05.008Z,34.90
2023-02-12T05:05:33.029Z,35.20
2023-02-12T05:08:00.913Z,35.10
2023-02-12T05:10:29.018Z,36.20
2023-02-12T05:12:57.129Z,36.10
2023-02-12T05:15:25.105Z,35.50
2023-02-12T05:17:53.146Z,33.80
2023-02-12T05:20:21.210Z,37.80
2023-02-12T05:22:52.912Z,40.30
2023-02-12T05:25:21.027Z,33.30
2023-02-12T05:27:49.060Z,36.80
2023-02-12T05:30:17.206Z,37.40
2023-02-12T05:32:45.152Z,40.00
2023-02-12T05:35:13.063Z,41.10
2023-02-12T05:37:41.082Z,40.70
2023-02-12T05:40:09.650Z,39.10
2023-02-12T05:42:37.691Z,41.90
2023-02-12T05:45:06.352Z,38.10
2023-02-12T05:47:34.343Z,37.50
2023-02-12T05:50:02.415Z,36.90
2023-02-12T05:52:30.322Z,41.10
2023-02-12T05:54:58.272Z,43.50
2023-02-12T05:57:26.247Z,40.80
2023-02-12T05:59:54.319Z,40.20
2023-02-12T06:02:22.309Z,39.50
2023-02-12T06:04:50.441Z,38.50
2023-02-12T06:07:18.385Z,39.80
2023-02-12T06:09:46.561Z,41.40
2023-02-12T06:12:14.585Z,39.50
2023-02-12T06:14:43.309Z,40.40
2023-02-12T06:17:11.372Z,38.90
2023-02-12T06:19:39.447Z,35.20
2023-02-12T06:22:07.414Z,33.20
2023-02-12T06:24:37.253Z,31.90
2023-02-12T06:27:05.094Z,30.90
2023-02-12T06:29:33.113Z,33.90
2023-02-12T06:32:01.223Z,31.90
2023-02-12T06:34:29.320Z,33.10
2023-02-12T06:36:57.432Z,39.00
2023-02-12T06:39:25.403Z,37.90
2023-02-12T06:41:54.653Z,39.30
2023-02-12T06:44:23.224Z,34.10
2023-02-12T06:46:51.210Z,34.90
2023-02-12T06:49:19.192Z,38.30
2023-02-12T06:51:47.050Z,39.70
2023-02-12T06:54:17.776Z,37.40
2023-02-12T06:56:46.035Z,41.70
2023-02-12T06:59:16.065Z,39.80
2023-02-12T07:01:44.849Z,40.80
2023-02-12T07:04:13.824Z,44.90
2023-02-12T07:06:41.953Z,43.00
2023-02-12T07:09:09.955Z,47.40
2023-02-12T07:11:38.820Z,51.00
2023-02-12T07:14:07.864Z,44.30
2023-02-12T07:16:35.844Z,47.70
2023-02-12T07:19:04.052Z,57.00
2023-02-12T07:21:32.432Z,54.70
2023-02-12T07:24:00.380Z,51.40
2023-02-12T07:26:28.247Z,52.60
2023-02-12T07:28:58.768Z,54.50
2023-02-12T07:31:27.155Z,54.80
2023-02-12T07:33:57.976Z,60.70
2023-02-12T07:36:28.723Z,57.40
2023-02-12T07:38:57.448Z,61.20
2023-02-12T07:41:31.438Z,62.40
2023-02-12T07:44:03.965Z,60.10
2023-02-12T07:46:34.563Z,60.00
2023-02-12T07:49:05.650Z,59.30
2023-02-12T07:51:37.291Z,60.50
2023-02-12T07:54:05.591Z,62.50
2023-02-12T07:56:37.754Z,57.60
2023-02-12T07:59:08.664Z,52.00
2023-02-12T08:01:41.875Z,57.70
2023-02-12T08:04:13.542Z,61.00
2023-02-12T08:06:44.144Z,62.50
2023-02-12T08:09:15.348Z,57.80
2023-02-12T08:11:44.088Z,60.50
2023-02-12T08:14:14.876Z,61.70
2023-02-12T08:16:45.075Z,61.60
2023-02-12T08:19:20.961Z,59.40
2023-02-12T08:21:54.973Z,58.10
2023-02-12T08:24:24.245Z,59.10
2023-02-12T08:26:52.241Z,61.30
2023-02-12T08:29:22.969Z,60.20
2023-02-12T08:31:56.395Z,60.00
2023-02-12T08:34:27.514Z,62.70
2023-02-12T08:36:56.871Z,63.60
2023-02-12T08:39:27.528Z,60.10
2023-02-12T08:41:57.538Z,62.80
2023-02-12T08:44:25.596Z,63.30
2023-02-12T08:46:55.881Z,64.00
2023-02-12T08:49:27.296Z,60.70
2023-02-12T08:51:57.768Z,61.10
2023-02-12T08:54:28.288Z,57.60
2023-02-12T08:56:58.369Z,61.00
2023-02-12T08:59:26.509Z,57.80
2023-02-12T09:01:55.461Z,53.20
2023-02-12T09:04:25.869Z,55.80
2023-02-12T09:06:54.495Z,54.80
2023-02-12T09:09:22.449Z,55.90
2023-02-12T09:11:51.103Z,52.30
2023-02-12T09:14:24.252Z,51.80
2023-02-12T09:16:53.687Z,48.90
2023-02-12T09:19:22.405Z,49.40
2023-02-12T09:21:55.252Z,48.30
2023-02-12T09:24:25.834Z,47.20
2023-02-12T09:26:53.904Z,47.20
2023-02-12T09:29:21.936Z,41.00
2023-02-12T09:31:50.519Z,49.50
2023-02-12T09:34:18.715Z,39.80
2023-02-12T09:36:46.939Z,48.50
2023-02-12T09:39:15.216Z,44.70
2023-02-12T09:42:02.146Z,48.20
2023-02-12T09:44:53.346Z,43.10
2023-02-12T09:47:26.136Z,49.10
2023-02-12T09:50:33.823Z,43.50
2023-02-12T09:53:02.744Z,41.40
2023-02-12T09:55:34.138Z,46.00
2023-02-12T09:58:07.457Z,40.60
2023-02-12T10:00:35.633Z,37.80
2023-02-12T10:03:12.472Z,45.30
2023-02-12T10:05:50.653Z,40.10
2023-02-12T10:08:54.269Z,38.50
2023-02-12T10:11:40.785Z,40.10
2023-02-12T10:14:11.781Z,38.90
2023-02-12T10:17:12.811Z,38.50
2023-02-12T10:20:01.361Z,42.70
2023-02-12T10:22:56.141Z,42.70
2023-02-12T10:25:52.248Z,40.90
2023-02-12T10:28:28.550Z,40.20
2023-02-12T10:31:07.469Z,38.00
2023-02-12T10:33:39.619Z,34.10
2023-02-12T10:36:27.846Z,36.40
2023-02-12T10:39:01.392Z,33.20
2023-02-12T10:41:32.125Z,28.50
2023-02-12T10:44:00.327Z,17.10
2023-02-12T10:46:32.242Z,37.00
2023-02-12T10:49:00.835Z,37.20
2023-02-12T10:51:57.500Z,24.80
2023-02-12T10:54:40.308Z,22.60
2023-02-12T10:57:26.093Z,22.80
2023-02-12T11:02:29.694Z,35.60
2023-02-12T11:04:59.729Z,35.10
2023-02-12T11:07:28.834Z,35.70
2023-02-12T11:09:57.632Z,35.20
2023-02-12T11:12:48.519Z,35.90
2023-02-12T11:15:22.258Z,35.00
2023-02-12T11:18:05.426Z,35.90
2023-02-12T11:20:39.432Z,35.30
2023-02-12T11:23:34.105Z,32.70
2023-02-12T11:26:24.419Z,35.90
2023-02-12T11:29:00.581Z,36.00
2023-02-12T11:31:30.076Z,34.10
2023-02-12T11:34:04.605Z,34.00
2023-02-12T11:36:36.666Z,34.40
2023-02-12T11:39:07.882Z,36.90
2023-02-12T11:41:39.175Z,33.60
2023-02-12T11:44:12.398Z,35.60
2023-02-12T11:46:47.071Z,36.00
2023-02-12T11:49:32.559Z,35.80
2023-02-12T11:52:03.721Z,33.20
2023-02-12T11:54:41.485Z,30.80
2023-02-12T11:57:36.274Z,21.60
2023-02-12T12:00:19.761Z,30.70
2023-02-12T12:03:03.294Z,19.50
2023-02-12T12:05:45.645Z,34.40
2023-02-12T12:08:40.104Z,35.40
2023-02-12T12:11:18.432Z,35.00
2023-02-12T12:13:58.236Z,23.50
2023-02-12T12:16:52.568Z,35.40
2023-02-12T12:19:47.314Z,35.60
2023-02-12T12:22:21.378Z,36.40
2023-02-12T12:25:02.863Z,35.70
2023-02-12T12:28:00.014Z,36.10
2023-02-12T12:30:52.514Z,16.50
2023-02-12T12:33:44.030Z,26.00
2023-02-12T12:36:37.870Z,35.00
2023-02-12T12:39:43.744Z,37.30
2023-02-12T12:42:33.385Z,37.20
2023-02-12T12:45:38.978Z,36.40
2023-02-12T12:48:16.829Z,37.40
2023-02-12T12:51:06.421Z,36.40
2023-02-12T12:53:47.083Z,35.10
2023-02-12T12:56:42.102Z,36.90
2023-02-12T12:59:21.573Z,37.00
2023-02-12T13:02:29.648Z,34.70
2023-02-12T13:05:29.100Z,32.90
2023-02-12T13:08:10.257Z,36.10
2023-02-12T13:10:51.242Z,36.40
2023-02-12T13:13:45.028Z,34.20
2023-02-12T13:16:24.106Z,36.50
2023-02-12T13:19:01.596Z,34.90
2023-02-12T13:21:42.399Z,35.50
2023-02-12T13:24:29.550Z,34.40
2023-02-12T13:27:01.632Z,34.60
2023-02-12T13:29:39.392Z,33.70
2023-02-12T13:32:22.769Z,34.30
2023-02-12T13:34:53.832Z,15.60
2023-02-12T13:37:38.485Z,35.30
2023-02-12T13:40:11.011Z,33.10
2023-02-12T13:43:28.262Z,33.80
2023-02-12T13:46:08.049Z,36.20
2023-02-12T13:48:53.204Z,32.80
2023-02-12T13:51:32.111Z,30.10
2023-02-12T13:54:03.278Z,31.80
2023-02-12T13:57:11.697Z,24.10
2023-02-12T13:59:45.330Z,29.60
2023-02-12T14:02:28.775Z,32.10
2023-02-12T14:05:00.065Z,27.10
2023-02-12T14:07:47.243Z,29.70
2023-02-12T14:10:29.903Z,32.60
2023-02-12T14:13:25.119Z,32.40
2023-02-12T14:15:56.826Z,30.90
2023-02-12T14:18:28.349Z,33.80
2023-02-12T14:21:12.220Z,31.20
2023-02-12T14:23:46.162Z,32.40
2023-02-12T14:26:16.597Z,26.80
2023-02-12T14:29:06.940Z,30.50
2023-02-12T14:31:37.569Z,30.40
2023-02-12T14:34:06.148Z,30.40
2023-02-12T14:36:41.696Z,32.00
2023-02-12T14:41:53.443Z,31.10
2023-02-12T14:44:23.221Z,31.50
2023-02-12T14:47:05.289Z,34.90
2023-02-12T14:49:44.915Z,34.50
2023-02-12T14:52:13.083Z,35.20
2023-02-12T14:54:49.020Z,31.90
2023-02-12T14:57:37.752Z,32.90
2023-02-12T15:00:18.168Z,32.00
2023-02-12T15:03:00.661Z,32.80
2023-02-12T15:05:34.893Z,33.60
2023-02-12T15:08:25.321Z,32.30
2023-02-12T15:10:59.979Z,30.60
2023-02-12T15:13:30.284Z,34.40
2023-02-12T15:16:15.544Z,34.80
2023-02-12T15:18:54.714Z,34.90
2023-02-12T15:21:34.809Z,36.70
2023-02-12T15:24:08.223Z,36.00
2023-02-12T15:26:42.007Z,35.20
2023-02-12T15:29:33.140Z,37.70
2023-02-12T15:32:06.899Z,33.60
2023-02-12T15:34:40.329Z,33.40
2023-02-12T15:37:10.169Z,31.10
2023-02-12T15:39:44.534Z,32.80
2023-02-12T15:42:28.208Z,34.10
2023-02-12T15:45:14.891Z,34.70
2023-02-12T15:47:44.624Z,34.90
2023-02-12T15:50:16.171Z,33.90
2023-02-12T15:52:47.681Z,30.70
2023-02-12T15:55:25.988Z,35.70
2023-02-12T15:57:59.861Z,34.40
2023-02-12T16:00:47.887Z,26.40
2023-02-12T16:03:34.081Z,36.60
2023-02-12T16:06:06.809Z,36.00
2023-02-12T16:08:36.120Z,32.90
2023-02-12T16:11:14.088Z,32.10
2023-02-12T16:13:51.485Z,29.20
2023-02-12T16:16:31.048Z,18.50
2023-02-12T16:19:17.791Z,32.40
2023-02-12T16:21:49.978Z,17.10
2023-02-12T16:24:44.610Z,24.70
2023-02-12T16:27:15.718Z,30.60
2023-02-12T16:29:52.419Z,18.00
2023-02-12T16:32:42.631Z,28.10
2023-02-12T16:35:10.551Z,24.50
2023-02-12T16:37:38.569Z,30.70
2023-02-12T16:40:12.336Z,30.80
2023-02-12T16:42:40.255Z,32.00
2023-02-12T16:45:32.594Z,33.00
2023-02-12T16:48:24.675Z,34.50
2023-02-12T16:50:58.390Z,35.20
2023-02-12T16:53:26.305Z,37.10
2023-02-12T16:55:54.526Z,37.10
2023-02-12T16:58:22.634Z,36.00
2023-02-12T17:00:50.710Z,37.30
2023-02-12T17:03:18.892Z,37.70
2023-02-12T17:05:47.330Z,36.00
2023-02-12T17:08:20.977Z,38.30
2023-02-12T17:10:49.187Z,38.40
2023-02-12T17:13:18.027Z,41.20
2023-02-12T17:15:54.242Z,37.60
2023-02-12T17:18:23.157Z,31.90
2023-02-12T17:20:58.145Z,39.80
2023-02-12T17:23:26.718Z,37.30
2023-02-12T17:25:54.914Z,37.10
2023-02-12T17:28:25.297Z,37.00
2023-02-12T17:30:53.986Z,37.70
2023-02-12T17:33:22.864Z,36.50
2023-02-12T17:35:51.025Z,36.00
2023-02-12T17:38:18.984Z,37.90
2023-02-12T17:40:47.136Z,38.80
2023-02-12T17:43:15.204Z,42.30
2023-02-12T17:45:43.917Z,39.90
2023-02-12T17:48:13.820Z,39.40
2023-02-12T17:50:42.318Z,43.10
2023-02-12T17:53:11.622Z,43.10
2023-02-12T17:55:40.897Z,42.50
2023-02-12T17:58:09.083Z,42.80
2023-02-12T18:00:37.185Z,42.70
2023-02-12T18:03:05.287Z,44.60
2023-02-12T18:05:33.487Z,45.20
2023-02-12T18:08:03.690Z,43.10
2023-02-12T18:10:31.739Z,46.50
2023-02-12T18:12:59.951Z,44.90
2023-02-12T18:15:27.940Z,45.10
2023-02-12T18:17:56.069Z,43.20
2023-02-12T18:20:24.456Z,42.40
2023-02-12T18:22:52.415Z,40.90
2023-02-12T18:25:20.482Z,42.90
2023-02-12T18:27:48.502Z,38.50
2023-02-12T18:30:16.845Z,40.20
2023-02-12T18:32:44.800Z,39.70
2023-02-12T18:35:13.131Z,43.00
2023-02-12T18:37:43.330Z,41.90
2023-02-12T18:40:12.056Z,43.10
2023-02-12T18:42:40.199Z,44.20
2023-02-12T18:45:08.628Z,43.40
2023-02-12T18:47:36.763Z,42.40
2023-02-12T18:50:05.763Z,42.70
2023-02-12T18:52:33.977Z,45.00
2023-02-12T18:55:01.936Z,45.00
2023-02-12T18:57:31.267Z,45.50
2023-02-12T18:59:59.356Z,43.30
2023-02-12T19:02:27.402Z,44.30
2023-02-12T19:04:55.785Z,44.50
2023-02-12T19:07:23.674Z,43.00
2023-02-12T19:09:52.954Z,44.20
2023-02-12T19:12:21.064Z,47.60
2023-02-12T19:14:48.987Z,47.80
2023-02-12T19:17:17.430Z,45.10
2023-02-12T19:19:45.494Z,43.00
2023-02-12T19:22:13.538Z,39.70
2023-02-12T19:24:46.862Z,40.50
2023-02-12T19:27:15.798Z,39.50
2023-02-12T19:29:44.213Z,40.00
2023-02-12T19:32:12.655Z,37.30
2023-02-12T19:34:40.889Z,40.70
2023-02-12T19:37:10.998Z,41.20
2023-02-12T19:39:40.693Z,40.40
2023-02-12T19:42:10.594Z,41.10
2023-02-12T19:44:40.787Z,45.30
2023-02-12T19:47:09.142Z,45.00
2023-02-12T19:49:38.273Z,46.90
2023-02-12T19:52:06.274Z,44.80
2023-02-12T19:54:34.907Z,51.30
2023-02-12T19:57:08.702Z,49.20
2023-02-12T19:59:36.942Z,49.70
2023-02-12T20:02:05.114Z,48.30
2023-02-12T20:04:34.015Z,48.40
2023-02-12T20:07:02.354Z,50.90
2023-02-12T20:09:30.490Z,57.30
2023-02-12T20:11:59.822Z,53.70
2023-02-12T20:14:28.140Z,71.80
2023-02-12T20:16:58.618Z,54.30
2023-02-12T20:19:30.686Z,55.50
2023-02-12T20:22:01.699Z,57.00
2023-02-12T20:24:32.504Z,56.40
2023-02-12T20:27:01.968Z,51.60
2023-02-12T20:29:30.092Z,55.40
2023-02-12T20:31:58.105Z,55.00
2023-02-12T20:34:26.658Z,56.00
2023-02-12T20:36:54.752Z,48.40
2023-02-12T20:39:23.363Z,48.00
2023-02-12T20:41:51.500Z,51.60
2023-02-12T20:44:21.491Z,49.40
2023-02-12T20:46:55.632Z,46.00
2023-02-12T20:49:26.052Z,52.70
2023-02-12T20:51:54.215Z,52.60
2023-02-12T20:54:22.374Z,49.60
2023-02-12T20:56:51.102Z,51.90
2023-02-12T20:59:20.477Z,50.20
2023-02-12T21:01:48.723Z,50.50
2023-02-12T21:04:18.935Z,51.80
2023-02-12T21:06:48.603Z,48.90
2023-02-12T21:09:18.954Z,49.00
2023-02-12T21:11:48.142Z,49.90
2023-02-12T21:14:24.680Z,50.00
2023-02-12T21:16:54.962Z,55.50
2023-02-12T21:19:23.964Z,55.50
2023-02-12T21:21:52.101Z,52.40
2023-02-12T21:24:23.787Z,49.60
2023-02-12T21:26:53.489Z,46.80
2023-02-12T21:29:22.423Z,45.40
2023-02-12T21:31:51.576Z,43.80
2023-02-12T21:34:21.762Z,44.90
2023-02-12T21:36:52.376Z,45.60
2023-02-12T21:39:27.566Z,46.00
2023-02-12T21:42:00.143Z,48.50
2023-02-12T21:44:29.671Z,50.60
2023-02-12T21:46:58.749Z,54.90
2023-02-12T21:49:28.378Z,54.10
2023-02-12T21:52:04.851Z,54.70
2023-02-12T21:54:32.910Z,54.30
2023-02-12T21:57:01.018Z,55.90
2023-02-12T21:59:31.970Z,55.30
2023-02-12T22:02:01.849Z,53.50
2023-02-12T22:04:30.391Z,55.50
2023-02-12T22:07:03.236Z,54.50
2023-02-12T22:09:31.914Z,51.60
2023-02-12T22:11:59.979Z,48.70
2023-02-12T22:14:28.013Z,44.20
2023-02-12T22:16:55.884Z,41.20
2023-02-12T22:19:23.883Z,43.10
2023-02-12T22:21:51.934Z,41.20
2023-02-12T22:24:20.804Z,37.10
2023-02-12T22:26:48.917Z,39.20
2023-02-12T22:29:17.688Z,39.70
2023-02-12T22:31:46.842Z,38.90
2023-02-12T22:34:17.703Z,40.80
2023-02-12T22:36:46.359Z,40.50
2023-02-12T22:39:15.164Z,42.10
2023-02-12T22:41:43.220Z,46.10
2023-02-12T22:44:12.988Z,41.40
2023-02-12T22:46:42.483Z,42.90
2023-02-12T22:49:11.156Z,41.10
2023-02-12T22:51:40.004Z,43.70
2023-02-12T22:54:13.942Z,42.80
2023-02-12T22:56:43.003Z,43.60
2023-02-12T22:59:12.849Z,40.00
2023-02-12T23:01:41.189Z,44.70
2023-02-12T23:04:15.731Z,41.20
2023-02-12T23:06:44.688Z,42.30
2023-02-12T23:09:15.211Z,40.80
2023-02-12T23:11:43.175Z,38.60
2023-02-12T23:14:11.617Z,37.10
2023-02-12T23:16:39.610Z,34.80
2023-02-12T23:19:07.579Z,35.30
2023-02-12T23:21:35.492Z,36.40
2023-02-12T23:24:03.740Z,35.30
2023-02-12T23:26:32.413Z,35.90
2023-02-12T23:29:00.402Z,38.20
2023-02-12T23:31:28.516Z,35.70
2023-02-12T23:33:56.540Z,35.50
2023-02-12T23:36:24.498Z,35.50
2023-02-12T23:38:52.371Z,33.50
2023-02-12T23:41:20.265Z,33.80
2023-02-12T23:43:48.192Z,34.30
2023-02-12T23:46:16.353Z,35.20
2023-02-12T23:48:44.738Z,34.00
2023-02-12T23:51:12.812Z,34.30
2023-02-12T23:53:40.753Z,30.10
2023-02-12T23:56:08.801Z,28.70
2023-02-12T23:58:36.670Z,27.60
